sensor_id;sensor_type;location;lat;lon;timestamp;P1;durP1;ratioP1;P2;durP2;ratioP2
8297;SDS011;4187;42.778;23.242;2023-05-19T00:01:11;13.32;;;11.93;;
8297;SDS011;4187;42.778;23.242;2023-05-19T00:03:48;16.67;;;12.32;;
8297;SDS011;4187;42.778;23.242;2023-05-19T00:06:19;15.25;;;12.57;;
8297;SDS011;4187;42.778;23.242;2023-05-19T00:08:49;16.92;;;13.68;;
8297;SDS011;4187;42.778;23.242;2023-05-19T00:11:22;13.80;;;11.65;;
8297;SDS011;4187;42.778;23.242;2023-05-19T00:13:51;13.52;;;12.15;;
8297;SDS011;4187;42.778;23.242;2023-05-19T00:16:18;15.18;;;12.40;;
8297;SDS011;4187;42.778;23.242;2023-05-19T00:18:46;13.70;;;12.30;;
8297;SDS011;4187;42.778;23.242;2023-05-19T00:21:13;13.35;;;11.95;;
8297;SDS011;4187;42.778;23.242;2023-05-19T00:23:40;13.57;;;11.68;;
8297;SDS011;4187;42.778;23.242;2023-05-19T00:26:07;12.45;;;11.15;;
8297;SDS011;4187;42.778;23.242;2023-05-19T00:28:35;13.02;;;11.55;;
8297;SDS011;4187;42.778;23.242;2023-05-19T00:31:02;13.57;;;12.15;;
8297;SDS011;4187;42.778;23.242;2023-05-19T00:33:30;13.52;;;11.73;;
8297;SDS011;4187;42.778;23.242;2023-05-19T00:35:58;14.40;;;12.90;;
8297;SDS011;4187;42.778;23.242;2023-05-19T00:38:26;14.25;;;12.75;;
8297;SDS011;4187;42.778;23.242;2023-05-19T00:40:53;13.80;;;11.93;;
8297;SDS011;4187;42.778;23.242;2023-05-19T00:43:20;12.52;;;11.10;;
8297;SDS011;4187;42.778;23.242;2023-05-19T00:45:48;12.30;;;11.05;;
8297;SDS011;4187;42.778;23.242;2023-05-19T00:48:16;13.32;;;10.60;;
8297;SDS011;4187;42.778;23.242;2023-05-19T00:50:42;11.75;;;10.63;;
8297;SDS011;4187;42.778;23.242;2023-05-19T00:53:10;11.60;;;10.40;;
8297;SDS011;4187;42.778;23.242;2023-05-19T00:55:37;11.27;;;10.07;;
8297;SDS011;4187;42.778;23.242;2023-05-19T00:58:06;11.25;;;10.10;;
8297;SDS011;4187;42.778;23.242;2023-05-19T01:00:35;11.70;;;10.50;;
8297;SDS011;4187;42.778;23.242;2023-05-19T01:03:04;11.18;;;9.18;;
8297;SDS011;4187;42.778;23.242;2023-05-19T01:05:35;11.50;;;10.30;;
8297;SDS011;4187;42.778;23.242;2023-05-19T01:08:04;12.68;;;11.32;;
8297;SDS011;4187;42.778;23.242;2023-05-19T01:10:31;15.75;;;10.70;;
8297;SDS011;4187;42.778;23.242;2023-05-19T01:12:58;12.50;;;10.38;;
8297;SDS011;4187;42.778;23.242;2023-05-19T01:15:26;12.25;;;10.98;;
8297;SDS011;4187;42.778;23.242;2023-05-19T01:17:55;13.23;;;11.82;;
8297;SDS011;4187;42.778;23.242;2023-05-19T01:20:29;13.07;;;11.65;;
8297;SDS011;4187;42.778;23.242;2023-05-19T01:29:07;12.68;;;11.43;;
8297;SDS011;4187;42.778;23.242;2023-05-19T01:31:43;12.90;;;11.57;;
8297;SDS011;4187;42.778;23.242;2023-05-19T01:34:13;17.77;;;13.38;;
8297;SDS011;4187;42.778;23.242;2023-05-19T01:36:41;16.13;;;12.75;;
8297;SDS011;4187;42.778;23.242;2023-05-19T01:39:09;13.80;;;12.13;;
8297;SDS011;4187;42.778;23.242;2023-05-19T01:41:37;17.67;;;13.02;;
8297;SDS011;4187;42.778;23.242;2023-05-19T01:44:06;14.43;;;12.23;;
8297;SDS011;4187;42.778;23.242;2023-05-19T01:46:34;14.98;;;12.45;;
8297;SDS011;4187;42.778;23.242;2023-05-19T01:49:02;14.05;;;12.07;;
8297;SDS011;4187;42.778;23.242;2023-05-19T01:51:30;13.68;;;12.35;;
8297;SDS011;4187;42.778;23.242;2023-05-19T01:53:57;14.02;;;12.23;;
8297;SDS011;4187;42.778;23.242;2023-05-19T01:56:25;14.65;;;13.05;;
8297;SDS011;4187;42.778;23.242;2023-05-19T01:59:03;13.30;;;11.88;;
8297;SDS011;4187;42.778;23.242;2023-05-19T02:01:44;13.02;;;11.68;;
8297;SDS011;4187;42.778;23.242;2023-05-19T02:04:20;21.30;;;18.60;;
8297;SDS011;4187;42.778;23.242;2023-05-19T02:06:58;22.85;;;16.73;;
8297;SDS011;4187;42.778;23.242;2023-05-19T02:09:34;15.68;;;13.77;;
8297;SDS011;4187;42.778;23.242;2023-05-19T02:12:09;16.38;;;13.05;;
8297;SDS011;4187;42.778;23.242;2023-05-19T02:14:44;14.32;;;11.88;;
8297;SDS011;4187;42.778;23.242;2023-05-19T02:17:15;14.18;;;12.25;;
8297;SDS011;4187;42.778;23.242;2023-05-19T02:19:45;17.60;;;12.65;;
8297;SDS011;4187;42.778;23.242;2023-05-19T02:22:12;13.38;;;11.60;;
8297;SDS011;4187;42.778;23.242;2023-05-19T02:24:39;16.90;;;12.85;;
8297;SDS011;4187;42.778;23.242;2023-05-19T02:27:08;14.23;;;12.20;;
8297;SDS011;4187;42.778;23.242;2023-05-19T02:29:35;17.77;;;11.85;;
8297;SDS011;4187;42.778;23.242;2023-05-19T02:32:02;15.68;;;13.15;;
8297;SDS011;4187;42.778;23.242;2023-05-19T02:34:29;15.82;;;12.30;;
8297;SDS011;4187;42.778;23.242;2023-05-19T02:36:57;14.80;;;13.27;;
8297;SDS011;4187;42.778;23.242;2023-05-19T02:39:24;16.42;;;13.90;;
8297;SDS011;4187;42.778;23.242;2023-05-19T02:41:51;16.02;;;13.32;;
8297;SDS011;4187;42.778;23.242;2023-05-19T02:44:18;17.08;;;13.80;;
8297;SDS011;4187;42.778;23.242;2023-05-19T02:46:44;16.83;;;14.20;;
8297;SDS011;4187;42.778;23.242;2023-05-19T02:49:11;14.52;;;12.95;;
8297;SDS011;4187;42.778;23.242;2023-05-19T02:51:38;16.38;;;13.20;;
8297;SDS011;4187;42.778;23.242;2023-05-19T02:54:06;16.52;;;13.90;;
8297;SDS011;4187;42.778;23.242;2023-05-19T02:56:33;16.25;;;12.82;;
8297;SDS011;4187;42.778;23.242;2023-05-19T02:59:00;14.57;;;12.40;;
8297;SDS011;4187;42.778;23.242;2023-05-19T03:01:27;14.90;;;13.30;;
8297;SDS011;4187;42.778;23.242;2023-05-19T03:03:54;16.73;;;14.18;;
8297;SDS011;4187;42.778;23.242;2023-05-19T03:06:20;17.05;;;14.80;;
8297;SDS011;4187;42.778;23.242;2023-05-19T03:08:48;18.40;;;14.82;;
8297;SDS011;4187;42.778;23.242;2023-05-19T03:11:16;16.42;;;13.88;;
8297;SDS011;4187;42.778;23.242;2023-05-19T03:13:43;17.55;;;14.43;;
8297;SDS011;4187;42.778;23.242;2023-05-19T03:16:10;15.88;;;13.35;;
8297;SDS011;4187;42.778;23.242;2023-05-19T03:18:38;18.35;;;13.55;;
8297;SDS011;4187;42.778;23.242;2023-05-19T03:21:04;17.77;;;14.30;;
8297;SDS011;4187;42.778;23.242;2023-05-19T03:23:31;17.27;;;13.88;;
8297;SDS011;4187;42.778;23.242;2023-05-19T03:25:58;17.83;;;13.88;;
8297;SDS011;4187;42.778;23.242;2023-05-19T03:28:26;18.58;;;14.00;;
8297;SDS011;4187;42.778;23.242;2023-05-19T03:30:53;16.00;;;12.80;;
8297;SDS011;4187;42.778;23.242;2023-05-19T03:33:20;16.17;;;13.77;;
8297;SDS011;4187;42.778;23.242;2023-05-19T03:35:47;19.50;;;13.13;;
8297;SDS011;4187;42.778;23.242;2023-05-19T03:38:14;17.85;;;14.18;;
8297;SDS011;4187;42.778;23.242;2023-05-19T03:40:41;18.15;;;13.48;;
8297;SDS011;4187;42.778;23.242;2023-05-19T03:43:09;16.45;;;13.85;;
8297;SDS011;4187;42.778;23.242;2023-05-19T03:45:37;19.73;;;13.65;;
8297;SDS011;4187;42.778;23.242;2023-05-19T03:48:04;16.45;;;13.82;;
8297;SDS011;4187;42.778;23.242;2023-05-19T03:50:31;16.33;;;13.68;;
8297;SDS011;4187;42.778;23.242;2023-05-19T03:52:58;14.10;;;12.40;;
8297;SDS011;4187;42.778;23.242;2023-05-19T03:55:25;16.95;;;14.30;;
8297;SDS011;4187;42.778;23.242;2023-05-19T03:57:54;20.90;;;16.48;;
8297;SDS011;4187;42.778;23.242;2023-05-19T04:00:21;19.42;;;16.17;;
8297;SDS011;4187;42.778;23.242;2023-05-19T04:02:49;15.23;;;13.10;;
8297;SDS011;4187;42.778;23.242;2023-05-19T04:05:16;14.00;;;12.20;;
8297;SDS011;4187;42.778;23.242;2023-05-19T04:07:43;12.40;;;11.10;;
8297;SDS011;4187;42.778;23.242;2023-05-19T04:10:11;15.45;;;12.07;;
8297;SDS011;4187;42.778;23.242;2023-05-19T04:12:38;12.93;;;11.52;;
8297;SDS011;4187;42.778;23.242;2023-05-19T04:15:06;13.13;;;11.15;;
8297;SDS011;4187;42.778;23.242;2023-05-19T04:17:35;13.00;;;11.70;;
8297;SDS011;4187;42.778;23.242;2023-05-19T04:20:04;14.75;;;12.15;;
8297;SDS011;4187;42.778;23.242;2023-05-19T04:22:32;15.25;;;11.90;;
8297;SDS011;4187;42.778;23.242;2023-05-19T04:24:59;13.05;;;11.10;;
8297;SDS011;4187;42.778;23.242;2023-05-19T04:27:25;13.23;;;10.48;;
8297;SDS011;4187;42.778;23.242;2023-05-19T04:29:54;11.02;;;9.95;;
8297;SDS011;4187;42.778;23.242;2023-05-19T04:32:22;12.80;;;11.38;;
8297;SDS011;4187;42.778;23.242;2023-05-19T04:34:49;12.27;;;10.98;;
8297;SDS011;4187;42.778;23.242;2023-05-19T04:37:17;12.88;;;11.23;;
8297;SDS011;4187;42.778;23.242;2023-05-19T04:39:45;12.15;;;10.85;;
8297;SDS011;4187;42.778;23.242;2023-05-19T04:42:12;12.75;;;11.20;;
8297;SDS011;4187;42.778;23.242;2023-05-19T04:44:43;11.82;;;10.30;;
8297;SDS011;4187;42.778;23.242;2023-05-19T04:47:10;11.98;;;10.77;;
8297;SDS011;4187;42.778;23.242;2023-05-19T04:49:37;12.57;;;11.15;;
8297;SDS011;4187;42.778;23.242;2023-05-19T04:52:05;12.07;;;10.77;;
8297;SDS011;4187;42.778;23.242;2023-05-19T04:54:36;13.10;;;11.68;;
8297;SDS011;4187;42.778;23.242;2023-05-19T04:57:03;12.00;;;10.70;;
8297;SDS011;4187;42.778;23.242;2023-05-19T04:59:31;12.82;;;11.52;;
8297;SDS011;4187;42.778;23.242;2023-05-19T05:01:57;12.70;;;10.75;;
8297;SDS011;4187;42.778;23.242;2023-05-19T05:04:24;13.27;;;11.88;;
8297;SDS011;4187;42.778;23.242;2023-05-19T05:06:51;13.40;;;12.00;;
8297;SDS011;4187;42.778;23.242;2023-05-19T05:09:18;13.48;;;12.07;;
8297;SDS011;4187;42.778;23.242;2023-05-19T05:11:46;14.15;;;11.18;;
8297;SDS011;4187;42.778;23.242;2023-05-19T05:14:14;12.60;;;11.30;;
8297;SDS011;4187;42.778;23.242;2023-05-19T05:16:41;15.55;;;13.38;;
8297;SDS011;4187;42.778;23.242;2023-05-19T05:19:08;14.85;;;11.82;;
8297;SDS011;4187;42.778;23.242;2023-05-19T05:21:36;13.18;;;11.77;;
8297;SDS011;4187;42.778;23.242;2023-05-19T05:24:03;13.98;;;12.48;;
8297;SDS011;4187;42.778;23.242;2023-05-19T05:26:32;17.80;;;11.40;;
8297;SDS011;4187;42.778;23.242;2023-05-19T05:29:00;13.27;;;11.77;;
8297;SDS011;4187;42.778;23.242;2023-05-19T05:31:27;12.95;;;11.25;;
8297;SDS011;4187;42.778;23.242;2023-05-19T05:33:54;14.65;;;10.88;;
8297;SDS011;4187;42.778;23.242;2023-05-19T05:36:21;13.18;;;11.27;;
8297;SDS011;4187;42.778;23.242;2023-05-19T05:38:48;14.13;;;10.80;;
8297;SDS011;4187;42.778;23.242;2023-05-19T05:41:15;10.98;;;9.52;;
8297;SDS011;4187;42.778;23.242;2023-05-19T05:43:41;14.95;;;11.57;;
8297;SDS011;4187;42.778;23.242;2023-05-19T05:46:10;13.88;;;10.38;;
8297;SDS011;4187;42.778;23.242;2023-05-19T05:48:37;13.15;;;10.02;;
8297;SDS011;4187;42.778;23.242;2023-05-19T05:51:06;12.50;;;10.60;;
8297;SDS011;4187;42.778;23.242;2023-05-19T05:53:34;11.63;;;10.43;;
8297;SDS011;4187;42.778;23.242;2023-05-19T05:56:06;12.38;;;10.30;;
8297;SDS011;4187;42.778;23.242;2023-05-19T05:58:33;11.05;;;9.65;;
8297;SDS011;4187;42.778;23.242;2023-05-19T06:01:01;13.43;;;10.98;;
8297;SDS011;4187;42.778;23.242;2023-05-19T06:03:30;12.55;;;11.25;;
8297;SDS011;4187;42.778;23.242;2023-05-19T06:05:57;11.70;;;10.15;;
8297;SDS011;4187;42.778;23.242;2023-05-19T06:08:24;11.27;;;9.98;;
8297;SDS011;4187;42.778;23.242;2023-05-19T06:10:51;10.88;;;9.68;;
8297;SDS011;4187;42.778;23.242;2023-05-19T06:13:17;10.80;;;8.65;;
8297;SDS011;4187;42.778;23.242;2023-05-19T06:15:48;12.20;;;9.30;;
8297;SDS011;4187;42.778;23.242;2023-05-19T06:18:14;10.48;;;9.48;;
8297;SDS011;4187;42.778;23.242;2023-05-19T06:20:43;10.38;;;9.27;;
8297;SDS011;4187;42.778;23.242;2023-05-19T06:23:09;10.52;;;8.77;;
8297;SDS011;4187;42.778;23.242;2023-05-19T06:25:36;10.20;;;8.80;;
8297;SDS011;4187;42.778;23.242;2023-05-19T06:28:03;9.63;;;8.70;;
8297;SDS011;4187;42.778;23.242;2023-05-19T06:30:30;9.35;;;8.38;;
8297;SDS011;4187;42.778;23.242;2023-05-19T06:32:57;12.48;;;9.52;;
8297;SDS011;4187;42.778;23.242;2023-05-19T06:35:24;10.52;;;9.40;;
8297;SDS011;4187;42.778;23.242;2023-05-19T06:37:52;11.55;;;8.57;;
8297;SDS011;4187;42.778;23.242;2023-05-19T06:40:19;10.48;;;9.38;;
8297;SDS011;4187;42.778;23.242;2023-05-19T06:42:46;10.23;;;8.73;;
8297;SDS011;4187;42.778;23.242;2023-05-19T06:45:13;10.18;;;8.02;;
8297;SDS011;4187;42.778;23.242;2023-05-19T06:47:40;9.90;;;8.90;;
8297;SDS011;4187;42.778;23.242;2023-05-19T06:50:08;10.23;;;8.23;;
8297;SDS011;4187;42.778;23.242;2023-05-19T06:52:36;8.38;;;7.57;;
8297;SDS011;4187;42.778;23.242;2023-05-19T06:55:04;9.05;;;8.15;;
8297;SDS011;4187;42.778;23.242;2023-05-19T06:57:32;9.40;;;7.43;;
8297;SDS011;4187;42.778;23.242;2023-05-19T06:59:58;8.48;;;7.15;;
8297;SDS011;4187;42.778;23.242;2023-05-19T07:02:25;8.15;;;7.32;;
8297;SDS011;4187;42.778;23.242;2023-05-19T07:04:52;7.50;;;6.20;;
8297;SDS011;4187;42.778;23.242;2023-05-19T07:07:19;7.82;;;7.07;;
8297;SDS011;4187;42.778;23.242;2023-05-19T07:09:46;8.10;;;7.30;;
8297;SDS011;4187;42.778;23.242;2023-05-19T07:12:14;10.05;;;7.20;;
8297;SDS011;4187;42.778;23.242;2023-05-19T07:14:41;10.85;;;8.15;;
8297;SDS011;4187;42.778;23.242;2023-05-19T07:17:08;7.47;;;6.78;;
8297;SDS011;4187;42.778;23.242;2023-05-19T07:19:35;8.43;;;7.25;;
8297;SDS011;4187;42.778;23.242;2023-05-19T07:22:02;7.47;;;6.78;;
8297;SDS011;4187;42.778;23.242;2023-05-19T07:24:29;7.68;;;6.95;;
8297;SDS011;4187;42.778;23.242;2023-05-19T07:26:56;9.27;;;7.40;;
8297;SDS011;4187;42.778;23.242;2023-05-19T07:29:24;7.80;;;7.05;;
8297;SDS011;4187;42.778;23.242;2023-05-19T07:31:51;9.10;;;7.18;;
8297;SDS011;4187;42.778;23.242;2023-05-19T07:34:21;7.55;;;6.82;;
8297;SDS011;4187;42.778;23.242;2023-05-19T07:36:48;8.38;;;7.55;;
8297;SDS011;4187;42.778;23.242;2023-05-19T07:39:15;10.20;;;8.05;;
8297;SDS011;4187;42.778;23.242;2023-05-19T07:41:42;10.13;;;7.68;;
8297;SDS011;4187;42.778;23.242;2023-05-19T07:44:09;9.10;;;8.13;;
8297;SDS011;4187;42.778;23.242;2023-05-19T07:46:37;8.60;;;7.70;;
8297;SDS011;4187;42.778;23.242;2023-05-19T07:49:04;10.25;;;8.18;;
8297;SDS011;4187;42.778;23.242;2023-05-19T07:51:31;7.75;;;7.03;;
8297;SDS011;4187;42.778;23.242;2023-05-19T07:53:58;8.25;;;7.45;;
8297;SDS011;4187;42.778;23.242;2023-05-19T07:56:25;8.63;;;7.50;;
8297;SDS011;4187;42.778;23.242;2023-05-19T07:58:52;8.80;;;7.45;;
8297;SDS011;4187;42.778;23.242;2023-05-19T08:01:19;9.85;;;7.57;;
8297;SDS011;4187;42.778;23.242;2023-05-19T08:03:47;9.10;;;7.97;;
8297;SDS011;4187;42.778;23.242;2023-05-19T08:06:14;8.38;;;7.57;;
8297;SDS011;4187;42.778;23.242;2023-05-19T08:08:41;9.40;;;8.00;;
8297;SDS011;4187;42.778;23.242;2023-05-19T08:11:07;9.32;;;7.90;;
8297;SDS011;4187;42.778;23.242;2023-05-19T08:13:34;8.25;;;6.63;;
8297;SDS011;4187;42.778;23.242;2023-05-19T08:16:01;8.40;;;7.50;;
8297;SDS011;4187;42.778;23.242;2023-05-19T08:18:29;7.75;;;6.95;;
8297;SDS011;4187;42.778;23.242;2023-05-19T08:20:57;10.43;;;7.32;;
8297;SDS011;4187;42.778;23.242;2023-05-19T08:23:24;11.23;;;8.00;;
8297;SDS011;4187;42.778;23.242;2023-05-19T08:25:51;9.18;;;7.70;;
8297;SDS011;4187;42.778;23.242;2023-05-19T08:28:18;9.00;;;7.60;;
8297;SDS011;4187;42.778;23.242;2023-05-19T08:30:44;8.35;;;7.47;;
8297;SDS011;4187;42.778;23.242;2023-05-19T08:33:11;8.75;;;7.95;;
8297;SDS011;4187;42.778;23.242;2023-05-19T08:35:38;9.40;;;7.50;;
8297;SDS011;4187;42.778;23.242;2023-05-19T08:38:06;10.57;;;8.30;;
8297;SDS011;4187;42.778;23.242;2023-05-19T08:40:33;11.73;;;8.25;;
8297;SDS011;4187;42.778;23.242;2023-05-19T08:43:02;8.38;;;7.50;;
8297;SDS011;4187;42.778;23.242;2023-05-19T08:45:29;9.63;;;8.63;;
8297;SDS011;4187;42.778;23.242;2023-05-19T08:47:58;8.68;;;7.32;;
8297;SDS011;4187;42.778;23.242;2023-05-19T08:50:27;7.70;;;7.00;;
8297;SDS011;4187;42.778;23.242;2023-05-19T08:52:59;8.57;;;7.65;;
8297;SDS011;4187;42.778;23.242;2023-05-19T08:55:32;8.48;;;7.60;;
8297;SDS011;4187;42.778;23.242;2023-05-19T08:58:03;10.15;;;8.07;;
8297;SDS011;4187;42.778;23.242;2023-05-19T09:00:30;10.20;;;8.05;;
8297;SDS011;4187;42.778;23.242;2023-05-19T09:02:58;11.25;;;7.68;;
8297;SDS011;4187;42.778;23.242;2023-05-19T09:05:26;8.55;;;7.78;;
8297;SDS011;4187;42.778;23.242;2023-05-19T09:07:53;13.52;;;8.45;;
8297;SDS011;4187;42.778;23.242;2023-05-19T09:10:21;11.40;;;7.07;;
8297;SDS011;4187;42.778;23.242;2023-05-19T09:12:49;11.60;;;8.15;;
8297;SDS011;4187;42.778;23.242;2023-05-19T09:15:16;8.93;;;8.00;;
8297;SDS011;4187;42.778;23.242;2023-05-19T09:17:44;10.60;;;8.13;;
8297;SDS011;4187;42.778;23.242;2023-05-19T09:20:12;10.20;;;8.18;;
8297;SDS011;4187;42.778;23.242;2023-05-19T09:22:41;11.50;;;8.40;;
8297;SDS011;4187;42.778;23.242;2023-05-19T09:25:18;8.82;;;7.93;;
8297;SDS011;4187;42.778;23.242;2023-05-19T09:27:45;9.15;;;7.88;;
8297;SDS011;4187;42.778;23.242;2023-05-19T09:30:15;9.27;;;8.35;;
8297;SDS011;4187;42.778;23.242;2023-05-19T09:32:43;13.15;;;8.20;;
8297;SDS011;4187;42.778;23.242;2023-05-19T09:35:10;9.05;;;7.50;;
8297;SDS011;4187;42.778;23.242;2023-05-19T09:37:41;9.52;;;8.15;;
8297;SDS011;4187;42.778;23.242;2023-05-19T09:40:09;9.23;;;8.32;;
8297;SDS011;4187;42.778;23.242;2023-05-19T09:42:38;9.25;;;7.72;;
8297;SDS011;4187;42.778;23.242;2023-05-19T09:45:07;12.57;;;7.75;;
8297;SDS011;4187;42.778;23.242;2023-05-19T09:47:36;9.10;;;8.27;;
8297;SDS011;4187;42.778;23.242;2023-05-19T09:50:04;10.70;;;8.70;;
8297;SDS011;4187;42.778;23.242;2023-05-19T09:52:35;10.07;;;8.10;;
8297;SDS011;4187;42.778;23.242;2023-05-19T09:55:03;9.48;;;8.15;;
8297;SDS011;4187;42.778;23.242;2023-05-19T09:57:34;9.07;;;7.60;;
8297;SDS011;4187;42.778;23.242;2023-05-19T10:00:03;9.50;;;8.35;;
8297;SDS011;4187;42.778;23.242;2023-05-19T10:02:41;9.30;;;8.50;;
8297;SDS011;4187;42.778;23.242;2023-05-19T10:05:10;8.77;;;7.47;;
8297;SDS011;4187;42.778;23.242;2023-05-19T10:07:41;10.65;;;8.05;;
8297;SDS011;4187;42.778;23.242;2023-05-19T10:10:10;11.40;;;8.27;;
8297;SDS011;4187;42.778;23.242;2023-05-19T10:12:38;10.75;;;8.55;;
8297;SDS011;4187;42.778;23.242;2023-05-19T10:15:07;9.80;;;8.55;;
8297;SDS011;4187;42.778;23.242;2023-05-19T10:17:36;8.30;;;7.43;;
8297;SDS011;4187;42.778;23.242;2023-05-19T10:20:06;12.45;;;8.02;;
8297;SDS011;4187;42.778;23.242;2023-05-19T10:22:36;9.55;;;8.23;;
8297;SDS011;4187;42.778;23.242;2023-05-19T10:25:04;10.65;;;8.20;;
8297;SDS011;4187;42.778;23.242;2023-05-19T10:27:33;9.07;;;8.05;;
8297;SDS011;4187;42.778;23.242;2023-05-19T10:30:04;12.35;;;7.65;;
8297;SDS011;4187;42.778;23.242;2023-05-19T10:32:35;10.52;;;8.88;;
8297;SDS011;4187;42.778;23.242;2023-05-19T10:38:05;11.40;;;8.13;;
8297;SDS011;4187;42.778;23.242;2023-05-19T10:40:39;10.10;;;7.80;;
8297;SDS011;4187;42.778;23.242;2023-05-19T10:43:19;11.18;;;8.43;;
8297;SDS011;4187;42.778;23.242;2023-05-19T10:45:52;10.82;;;8.27;;
8297;SDS011;4187;42.778;23.242;2023-05-19T10:48:19;8.55;;;7.75;;
8297;SDS011;4187;42.778;23.242;2023-05-19T10:50:48;9.20;;;8.25;;
8297;SDS011;4187;42.778;23.242;2023-05-19T10:53:19;9.95;;;8.25;;
8297;SDS011;4187;42.778;23.242;2023-05-19T10:55:49;11.80;;;8.18;;
8297;SDS011;4187;42.778;23.242;2023-05-19T11:01:05;12.77;;;8.40;;
8297;SDS011;4187;42.778;23.242;2023-05-19T11:03:41;10.80;;;8.15;;
8297;SDS011;4187;42.778;23.242;2023-05-19T11:06:23;8.57;;;7.75;;
8297;SDS011;4187;42.778;23.242;2023-05-19T11:08:52;9.77;;;8.30;;
8297;SDS011;4187;42.778;23.242;2023-05-19T11:11:22;9.70;;;8.45;;
8297;SDS011;4187;42.778;23.242;2023-05-19T11:13:50;8.30;;;7.50;;
8297;SDS011;4187;42.778;23.242;2023-05-19T11:16:19;9.38;;;7.75;;
8297;SDS011;4187;42.778;23.242;2023-05-19T11:18:52;9.27;;;7.55;;
8297;SDS011;4187;42.778;23.242;2023-05-19T11:21:21;9.75;;;7.20;;
8297;SDS011;4187;42.778;23.242;2023-05-19T11:23:49;7.97;;;7.18;;
8297;SDS011;4187;42.778;23.242;2023-05-19T11:29:08;9.43;;;7.57;;
8297;SDS011;4187;42.778;23.242;2023-05-19T11:31:35;13.48;;;6.90;;
8297;SDS011;4187;42.778;23.242;2023-05-19T11:34:04;7.85;;;7.15;;
8297;SDS011;4187;42.778;23.242;2023-05-19T11:36:33;11.52;;;7.68;;
8297;SDS011;4187;42.778;23.242;2023-05-19T11:39:02;8.70;;;7.50;;
8297;SDS011;4187;42.778;23.242;2023-05-19T11:41:30;7.68;;;6.95;;
8297;SDS011;4187;42.778;23.242;2023-05-19T11:43:56;10.27;;;7.43;;
8297;SDS011;4187;42.778;23.242;2023-05-19T11:46:23;7.93;;;7.05;;
8297;SDS011;4187;42.778;23.242;2023-05-19T11:48:50;16.20;;;7.82;;
8297;SDS011;4187;42.778;23.242;2023-05-19T11:51:19;7.90;;;7.10;;
8297;SDS011;4187;42.778;23.242;2023-05-19T11:53:49;9.15;;;6.72;;
8297;SDS011;4187;42.778;23.242;2023-05-19T11:56:18;12.88;;;7.32;;
8297;SDS011;4187;42.778;23.242;2023-05-19T11:58:45;9.43;;;6.93;;
8297;SDS011;4187;42.778;23.242;2023-05-19T12:01:12;12.23;;;7.22;;
8297;SDS011;4187;42.778;23.242;2023-05-19T12:03:39;9.48;;;6.97;;
8297;SDS011;4187;42.778;23.242;2023-05-19T12:06:06;8.13;;;6.47;;
8297;SDS011;4187;42.778;23.242;2023-05-19T12:08:34;10.68;;;7.05;;
8297;SDS011;4187;42.778;23.242;2023-05-19T12:11:03;8.27;;;6.00;;
8297;SDS011;4187;42.778;23.242;2023-05-19T12:13:31;8.80;;;7.07;;
8297;SDS011;4187;42.778;23.242;2023-05-19T12:15:58;12.57;;;6.88;;
8297;SDS011;4187;42.778;23.242;2023-05-19T12:18:27;15.68;;;7.90;;
8297;SDS011;4187;42.778;23.242;2023-05-19T12:20:55;11.18;;;8.38;;
8297;SDS011;4187;42.778;23.242;2023-05-19T12:23:22;10.07;;;7.40;;
8297;SDS011;4187;42.778;23.242;2023-05-19T12:25:50;10.50;;;7.28;;
8297;SDS011;4187;42.778;23.242;2023-05-19T12:28:18;7.97;;;6.38;;
8297;SDS011;4187;42.778;23.242;2023-05-19T12:30:46;7.07;;;6.38;;
8297;SDS011;4187;42.778;23.242;2023-05-19T12:33:16;8.88;;;6.80;;
8297;SDS011;4187;42.778;23.242;2023-05-19T12:35:44;8.63;;;7.13;;
8297;SDS011;4187;42.778;23.242;2023-05-19T12:38:12;9.40;;;6.93;;
8297;SDS011;4187;42.778;23.242;2023-05-19T12:40:39;7.70;;;6.90;;
8297;SDS011;4187;42.778;23.242;2023-05-19T12:43:07;11.98;;;6.70;;
8297;SDS011;4187;42.778;23.242;2023-05-19T12:45:35;9.32;;;7.13;;
8297;SDS011;4187;42.778;23.242;2023-05-19T12:48:03;7.40;;;6.70;;
8297;SDS011;4187;42.778;23.242;2023-05-19T12:50:30;9.40;;;6.72;;
8297;SDS011;4187;42.778;23.242;2023-05-19T12:52:58;7.97;;;6.72;;
8297;SDS011;4187;42.778;23.242;2023-05-19T12:55:24;8.48;;;7.03;;
8297;SDS011;4187;42.778;23.242;2023-05-19T12:57:51;9.82;;;6.95;;
8297;SDS011;4187;42.778;23.242;2023-05-19T13:00:21;7.60;;;6.70;;
8297;SDS011;4187;42.778;23.242;2023-05-19T13:02:54;11.15;;;7.65;;
8297;SDS011;4187;42.778;23.242;2023-05-19T13:05:23;6.95;;;6.25;;
8297;SDS011;4187;42.778;23.242;2023-05-19T13:07:54;10.40;;;6.72;;
8297;SDS011;4187;42.778;23.242;2023-05-19T13:10:21;7.90;;;6.32;;
8297;SDS011;4187;42.778;23.242;2023-05-19T13:12:49;8.55;;;6.55;;
8297;SDS011;4187;42.778;23.242;2023-05-19T13:15:17;12.05;;;8.48;;
8297;SDS011;4187;42.778;23.242;2023-05-19T13:17:44;10.05;;;7.28;;
8297;SDS011;4187;42.778;23.242;2023-05-19T13:20:12;29.83;;;17.77;;
8297;SDS011;4187;42.778;23.242;2023-05-19T13:22:39;6.50;;;5.90;;
8297;SDS011;4187;42.778;23.242;2023-05-19T13:25:07;8.63;;;6.13;;
8297;SDS011;4187;42.778;23.242;2023-05-19T13:27:35;6.32;;;5.72;;
8297;SDS011;4187;42.778;23.242;2023-05-19T13:30:02;6.40;;;5.65;;
8297;SDS011;4187;42.778;23.242;2023-05-19T13:32:29;11.15;;;5.97;;
8297;SDS011;4187;42.778;23.242;2023-05-19T13:34:56;6.82;;;5.57;;
8297;SDS011;4187;42.778;23.242;2023-05-19T13:37:25;6.82;;;5.70;;
8297;SDS011;4187;42.778;23.242;2023-05-19T13:39:52;7.03;;;6.28;;
8297;SDS011;4187;42.778;23.242;2023-05-19T13:42:19;8.38;;;6.35;;
8297;SDS011;4187;42.778;23.242;2023-05-19T13:44:46;7.70;;;5.70;;
8297;SDS011;4187;42.778;23.242;2023-05-19T13:47:13;8.30;;;5.80;;
8297;SDS011;4187;42.778;23.242;2023-05-19T13:49:41;7.95;;;7.15;;
8297;SDS011;4187;42.778;23.242;2023-05-19T13:52:07;12.52;;;7.15;;
8297;SDS011;4187;42.778;23.242;2023-05-19T13:54:37;7.63;;;6.45;;
8297;SDS011;4187;42.778;23.242;2023-05-19T13:57:03;6.20;;;5.60;;
8297;SDS011;4187;42.778;23.242;2023-05-19T13:59:31;7.07;;;6.25;;
8297;SDS011;4187;42.778;23.242;2023-05-19T14:01:58;8.73;;;6.05;;
8297;SDS011;4187;42.778;23.242;2023-05-19T14:04:26;9.82;;;7.07;;
8297;SDS011;4187;42.778;23.242;2023-05-19T14:06:53;7.10;;;6.18;;
8297;SDS011;4187;42.778;23.242;2023-05-19T14:09:21;7.53;;;6.40;;
8297;SDS011;4187;42.778;23.242;2023-05-19T14:11:49;8.63;;;7.72;;
8297;SDS011;4187;42.778;23.242;2023-05-19T14:14:16;12.05;;;6.68;;
8297;SDS011;4187;42.778;23.242;2023-05-19T14:16:43;9.05;;;6.95;;
8297;SDS011;4187;42.778;23.242;2023-05-19T14:19:10;6.18;;;5.57;;
8297;SDS011;4187;42.778;23.242;2023-05-19T14:21:36;6.03;;;5.45;;
8297;SDS011;4187;42.778;23.242;2023-05-19T14:24:03;11.30;;;6.97;;
8297;SDS011;4187;42.778;23.242;2023-05-19T14:26:30;7.03;;;5.70;;
8297;SDS011;4187;42.778;23.242;2023-05-19T14:28:58;7.15;;;5.55;;
8297;SDS011;4187;42.778;23.242;2023-05-19T14:31:25;7.45;;;6.35;;
8297;SDS011;4187;42.778;23.242;2023-05-19T14:33:52;7.63;;;6.55;;
8297;SDS011;4187;42.778;23.242;2023-05-19T14:36:19;7.68;;;6.05;;
8297;SDS011;4187;42.778;23.242;2023-05-19T14:38:46;8.05;;;6.53;;
8297;SDS011;4187;42.778;23.242;2023-05-19T14:41:13;8.18;;;6.55;;
8297;SDS011;4187;42.778;23.242;2023-05-19T14:43:39;9.30;;;7.03;;
8297;SDS011;4187;42.778;23.242;2023-05-19T14:46:08;9.93;;;6.97;;
8297;SDS011;4187;42.778;23.242;2023-05-19T14:48:35;7.90;;;6.65;;
8297;SDS011;4187;42.778;23.242;2023-05-19T14:51:02;9.77;;;6.65;;
8297;SDS011;4187;42.778;23.242;2023-05-19T14:53:29;7.63;;;6.82;;
8297;SDS011;4187;42.778;23.242;2023-05-19T14:55:56;12.50;;;7.25;;
8297;SDS011;4187;42.778;23.242;2023-05-19T14:58:22;10.15;;;6.63;;
8297;SDS011;4187;42.778;23.242;2023-05-19T15:00:49;8.60;;;7.07;;
8297;SDS011;4187;42.778;23.242;2023-05-19T15:03:17;10.95;;;7.22;;
8297;SDS011;4187;42.778;23.242;2023-05-19T15:05:44;12.80;;;8.20;;
8297;SDS011;4187;42.778;23.242;2023-05-19T15:08:11;65.78;;;14.75;;